sensor_id;sensor_type;location;lat;lon;timestamp;P1;durP1;ratioP1;P2;durP2;ratioP2
6531;SDS011;3299;42.004;24.868;2024-03-23T00:54:18;2.47;;;1.98;;
6531;SDS011;3299;42.004;24.868;2024-03-23T00:56:43;2.95;;;2.22;;
6531;SDS011;3299;42.004;24.868;2024-03-23T00:59:09;2.88;;;2.53;;
6531;SDS011;3299;42.004;24.868;2024-03-23T01:01:34;2.90;;;2.70;;
6531;SDS011;3299;42.004;24.868;2024-03-23T01:03:59;2.53;;;2.33;;
6531;SDS011;3299;42.004;24.868;2024-03-23T01:06:25;2.65;;;2.17;;
6531;SDS011;3299;42.004;24.868;2024-03-23T01:08:50;2.90;;;2.70;;
6531;SDS011;3299;42.004;24.868;2024-03-23T01:11:15;3.45;;;2.63;;
6531;SDS011;3299;42.004;24.868;2024-03-23T01:13:44;3.13;;;2.72;;
6531;SDS011;3299;42.004;24.868;2024-03-23T01:16:09;3.30;;;2.70;;
6531;SDS011;3299;42.004;24.868;2024-03-23T01:18:34;2.65;;;2.45;;
6531;SDS011;3299;42.004;24.868;2024-03-23T01:21:00;2.95;;;2.70;;
6531;SDS011;3299;42.004;24.868;2024-03-23T01:23:25;3.22;;;2.30;;
6531;SDS011;3299;42.004;24.868;2024-03-23T01:25:51;2.30;;;2.13;;
6531;SDS011;3299;42.004;24.868;2024-03-23T01:28:18;3.35;;;2.30;;
6531;SDS011;3299;42.004;24.868;2024-03-23T01:30:44;2.97;;;2.35;;
6531;SDS011;3299;42.004;24.868;2024-03-23T01:33:09;2.55;;;2.35;;
6531;SDS011;3299;42.004;24.868;2024-03-23T01:35:35;2.55;;;2.35;;
6531;SDS011;3299;42.004;24.868;2024-03-23T01:38:00;3.22;;;2.92;;
6531;SDS011;3299;42.004;24.868;2024-03-23T01:40:25;5.13;;;3.15;;
6531;SDS011;3299;42.004;24.868;2024-03-23T01:42:58;4.95;;;3.78;;
6531;SDS011;3299;42.004;24.868;2024-03-23T01:45:28;3.97;;;3.58;;
6531;SDS011;3299;42.004;24.868;2024-03-23T01:47:55;3.95;;;3.58;;
6531;SDS011;3299;42.004;24.868;2024-03-23T01:50:21;5.50;;;3.90;;
6531;SDS011;3299;42.004;24.868;2024-03-23T01:52:47;5.60;;;4.32;;
6531;SDS011;3299;42.004;24.868;2024-03-23T01:55:13;6.43;;;3.63;;
6531;SDS011;3299;42.004;24.868;2024-03-23T01:57:38;6.75;;;3.75;;
6531;SDS011;3299;42.004;24.868;2024-03-23T02:00:04;7.03;;;4.18;;
6531;SDS011;3299;42.004;24.868;2024-03-23T02:02:31;5.28;;;3.92;;
6531;SDS011;3299;42.004;24.868;2024-03-23T02:04:56;5.85;;;4.35;;
6531;SDS011;3299;42.004;24.868;2024-03-23T02:07:22;7.38;;;4.22;;
6531;SDS011;3299;42.004;24.868;2024-03-23T02:09:48;4.53;;;3.95;;
6531;SDS011;3299;42.004;24.868;2024-03-23T02:12:15;4.45;;;4.05;;
6531;SDS011;3299;42.004;24.868;2024-03-23T02:14:40;4.07;;;3.67;;
6531;SDS011;3299;42.004;24.868;2024-03-23T02:17:06;4.38;;;3.95;;
6531;SDS011;3299;42.004;24.868;2024-03-23T02:19:31;4.97;;;4.05;;
6531;SDS011;3299;42.004;24.868;2024-03-23T02:21:56;6.30;;;4.60;;
6531;SDS011;3299;42.004;24.868;2024-03-23T02:24:22;5.15;;;4.07;;
6531;SDS011;3299;42.004;24.868;2024-03-23T02:26:47;4.03;;;3.50;;
6531;SDS011;3299;42.004;24.868;2024-03-23T02:29:13;4.03;;;3.50;;
6531;SDS011;3299;42.004;24.868;2024-03-23T02:31:39;4.70;;;3.33;;
6531;SDS011;3299;42.004;24.868;2024-03-23T02:34:05;4.47;;;3.00;;
6531;SDS011;3299;42.004;24.868;2024-03-23T02:36:30;4.10;;;3.13;;
6531;SDS011;3299;42.004;24.868;2024-03-23T02:38:56;3.05;;;2.50;;
6531;SDS011;3299;42.004;24.868;2024-03-23T02:41:21;4.28;;;2.50;;
6531;SDS011;3299;42.004;24.868;2024-03-23T02:43:51;3.25;;;2.13;;
6531;SDS011;3299;42.004;24.868;2024-03-23T02:46:17;2.60;;;2.40;;
6531;SDS011;3299;42.004;24.868;2024-03-23T02:48:42;3.10;;;2.70;;
6531;SDS011;3299;42.004;24.868;2024-03-23T02:51:08;3.30;;;2.63;;
6531;SDS011;3299;42.004;24.868;2024-03-23T02:53:34;2.95;;;2.67;;
6531;SDS011;3299;42.004;24.868;2024-03-23T02:55:59;2.83;;;2.63;;
6531;SDS011;3299;42.004;24.868;2024-03-23T02:58:25;3.30;;;2.08;;
6531;SDS011;3299;42.004;24.868;2024-03-23T03:00:50;2.70;;;2.50;;
6531;SDS011;3299;42.004;24.868;2024-03-23T03:03:15;2.90;;;2.70;;
6531;SDS011;3299;42.004;24.868;2024-03-23T03:05:41;2.58;;;2.38;;
6531;SDS011;3299;42.004;24.868;2024-03-23T03:08:06;2.90;;;2.60;;
6531;SDS011;3299;42.004;24.868;2024-03-23T03:10:32;3.10;;;2.80;;
6531;SDS011;3299;42.004;24.868;2024-03-23T03:13:00;3.40;;;2.95;;
6531;SDS011;3299;42.004;24.868;2024-03-23T03:15:25;2.67;;;2.47;;
6531;SDS011;3299;42.004;24.868;2024-03-23T03:17:51;2.70;;;2.50;;
6531;SDS011;3299;42.004;24.868;2024-03-23T03:20:16;3.35;;;2.65;;
6531;SDS011;3299;42.004;24.868;2024-03-23T03:22:43;4.20;;;2.92;;
6531;SDS011;3299;42.004;24.868;2024-03-23T03:25:08;2.80;;;2.60;;
6531;SDS011;3299;42.004;24.868;2024-03-23T03:27:34;3.58;;;3.28;;
6531;SDS011;3299;42.004;24.868;2024-03-23T03:30:02;2.97;;;2.65;;
6531;SDS011;3299;42.004;24.868;2024-03-23T03:32:30;3.85;;;3.42;;
6531;SDS011;3299;42.004;24.868;2024-03-23T03:34:57;3.47;;;3.17;;
6531;SDS011;3299;42.004;24.868;2024-03-23T03:37:22;5.38;;;2.97;;
6531;SDS011;3299;42.004;24.868;2024-03-23T03:39:47;3.03;;;2.83;;
6531;SDS011;3299;42.004;24.868;2024-03-23T03:42:13;3.00;;;2.35;;
6531;SDS011;3299;42.004;24.868;2024-03-23T03:44:38;2.70;;;2.50;;
6531;SDS011;3299;42.004;24.868;2024-03-23T03:47:04;2.38;;;2.17;;
6531;SDS011;3299;42.004;24.868;2024-03-23T03:49:30;4.78;;;3.15;;
6531;SDS011;3299;42.004;24.868;2024-03-23T03:51:56;3.25;;;2.95;;
6531;SDS011;3299;42.004;24.868;2024-03-23T03:54:21;2.83;;;2.63;;
6531;SDS011;3299;42.004;24.868;2024-03-23T03:56:46;3.22;;;2.85;;
6531;SDS011;3299;42.004;24.868;2024-03-23T03:59:12;3.35;;;2.70;;
6531;SDS011;3299;42.004;24.868;2024-03-23T04:01:37;3.28;;;3.08;;
6531;SDS011;3299;42.004;24.868;2024-03-23T04:04:03;4.25;;;2.85;;
6531;SDS011;3299;42.004;24.868;2024-03-23T04:06:28;3.65;;;2.72;;
6531;SDS011;3299;42.004;24.868;2024-03-23T04:08:53;3.03;;;2.83;;
6531;SDS011;3299;42.004;24.868;2024-03-23T04:11:19;2.97;;;2.72;;
6531;SDS011;3299;42.004;24.868;2024-03-23T04:13:44;3.58;;;3.28;;
6531;SDS011;3299;42.004;24.868;2024-03-23T04:16:09;4.47;;;3.70;;
6531;SDS011;3299;42.004;24.868;2024-03-23T04:18:35;3.90;;;3.45;;
6531;SDS011;3299;42.004;24.868;2024-03-23T04:21:00;4.43;;;4.03;;
6531;SDS011;3299;42.004;24.868;2024-03-23T04:23:26;5.05;;;3.78;;
6531;SDS011;3299;42.004;24.868;2024-03-23T04:25:51;6.45;;;3.03;;
6531;SDS011;3299;42.004;24.868;2024-03-23T04:28:18;3.60;;;3.30;;
6531;SDS011;3299;42.004;24.868;2024-03-23T04:30:44;6.00;;;3.63;;
6531;SDS011;3299;42.004;24.868;2024-03-23T04:33:09;3.25;;;2.95;;
6531;SDS011;3299;42.004;24.868;2024-03-23T04:35:35;3.03;;;2.80;;
6531;SDS011;3299;42.004;24.868;2024-03-23T04:38:01;2.92;;;2.72;;
6531;SDS011;3299;42.004;24.868;2024-03-23T04:40:26;3.03;;;2.78;;
6531;SDS011;3299;42.004;24.868;2024-03-23T04:42:52;4.28;;;3.85;;
6531;SDS011;3299;42.004;24.868;2024-03-23T04:45:17;3.30;;;3.00;;
6531;SDS011;3299;42.004;24.868;2024-03-23T04:47:43;3.20;;;2.90;;
6531;SDS011;3299;42.004;24.868;2024-03-23T04:50:08;3.28;;;2.97;;
6531;SDS011;3299;42.004;24.868;2024-03-23T04:52:35;2.67;;;2.42;;
6531;SDS011;3299;42.004;24.868;2024-03-23T04:55:01;3.15;;;2.65;;
6531;SDS011;3299;42.004;24.868;2024-03-23T04:57:26;3.53;;;3.17;;
6531;SDS011;3299;42.004;24.868;2024-03-23T04:59:51;3.28;;;2.97;;
6531;SDS011;3299;42.004;24.868;2024-03-23T05:02:17;3.28;;;3.00;;
6531;SDS011;3299;42.004;24.868;2024-03-23T05:04:42;3.58;;;2.85;;
6531;SDS011;3299;42.004;24.868;2024-03-23T05:07:08;4.32;;;3.28;;
6531;SDS011;3299;42.004;24.868;2024-03-23T05:09:33;2.85;;;2.65;;
6531;SDS011;3299;42.004;24.868;2024-03-23T05:12:01;3.00;;;2.78;;
6531;SDS011;3299;42.004;24.868;2024-03-23T05:14:27;2.65;;;2.45;;
6531;SDS011;3299;42.004;24.868;2024-03-23T05:16:53;3.00;;;2.78;;
6531;SDS011;3299;42.004;24.868;2024-03-23T05:19:18;5.00;;;3.67;;
6531;SDS011;3299;42.004;24.868;2024-03-23T05:21:44;4.97;;;4.50;;
6531;SDS011;3299;42.004;24.868;2024-03-23T05:24:10;10.15;;;5.55;;
6531;SDS011;3299;42.004;24.868;2024-03-23T05:26:36;7.25;;;6.05;;
6531;SDS011;3299;42.004;24.868;2024-03-23T05:29:02;9.45;;;6.20;;
6531;SDS011;3299;42.004;24.868;2024-03-23T05:31:28;6.95;;;5.47;;
6531;SDS011;3299;42.004;24.868;2024-03-23T05:33:55;3.80;;;3.08;;
6531;SDS011;3299;42.004;24.868;2024-03-23T05:36:21;5.68;;;4.97;;
6531;SDS011;3299;42.004;24.868;2024-03-23T05:38:47;3.20;;;2.90;;
6531;SDS011;3299;42.004;24.868;2024-03-23T05:41:13;2.75;;;2.47;;
6531;SDS011;3299;42.004;24.868;2024-03-23T05:43:38;5.40;;;2.60;;
6531;SDS011;3299;42.004;24.868;2024-03-23T05:46:04;2.80;;;2.60;;
6531;SDS011;3299;42.004;24.868;2024-03-23T05:48:30;3.30;;;3.00;;
6531;SDS011;3299;42.004;24.868;2024-03-23T05:50:56;2.90;;;2.63;;
6531;SDS011;3299;42.004;24.868;2024-03-23T05:53:22;2.92;;;2.60;;
6531;SDS011;3299;42.004;24.868;2024-03-23T05:55:49;3.70;;;3.40;;
6531;SDS011;3299;42.004;24.868;2024-03-23T05:58:15;2.70;;;2.50;;
6531;SDS011;3299;42.004;24.868;2024-03-23T06:00:41;2.67;;;2.40;;
6531;SDS011;3299;42.004;24.868;2024-03-23T06:03:07;4.72;;;2.85;;
6531;SDS011;3299;42.004;24.868;2024-03-23T06:05:33;2.72;;;2.30;;
6531;SDS011;3299;42.004;24.868;2024-03-23T06:07:58;2.55;;;2.35;;
6531;SDS011;3299;42.004;24.868;2024-03-23T06:10:24;2.65;;;2.35;;
6531;SDS011;3299;42.004;24.868;2024-03-23T06:12:49;3.13;;;2.75;;
6531;SDS011;3299;42.004;24.868;2024-03-23T06:15:17;2.88;;;2.67;;
6531;SDS011;3299;42.004;24.868;2024-03-23T06:17:45;2.95;;;2.65;;
6531;SDS011;3299;42.004;24.868;2024-03-23T06:20:12;2.60;;;2.40;;
6531;SDS011;3299;42.004;24.868;2024-03-23T06:22:37;4.68;;;2.33;;
6531;SDS011;3299;42.004;24.868;2024-03-23T06:25:03;3.03;;;2.80;;
6531;SDS011;3299;42.004;24.868;2024-03-23T06:27:29;2.92;;;2.15;;
6531;SDS011;3299;42.004;24.868;2024-03-23T06:29:54;2.38;;;2.28;;
6531;SDS011;3299;42.004;24.868;2024-03-23T06:32:20;2.60;;;2.40;;
6531;SDS011;3299;42.004;24.868;2024-03-23T06:34:46;3.63;;;2.55;;
6531;SDS011;3299;42.004;24.868;2024-03-23T06:37:11;2.40;;;2.20;;
6531;SDS011;3299;42.004;24.868;2024-03-23T06:39:37;2.97;;;2.65;;
6531;SDS011;3299;42.004;24.868;2024-03-23T06:42:02;5.78;;;3.08;;
6531;SDS011;3299;42.004;24.868;2024-03-23T06:44:31;6.97;;;4.55;;
6531;SDS011;3299;42.004;24.868;2024-03-23T06:46:57;5.80;;;4.20;;
6531;SDS011;3299;42.004;24.868;2024-03-23T06:49:22;3.63;;;3.33;;
6531;SDS011;3299;42.004;24.868;2024-03-23T06:51:48;7.65;;;5.10;;
6531;SDS011;3299;42.004;24.868;2024-03-23T06:54:14;10.70;;;5.78;;
6531;SDS011;3299;42.004;24.868;2024-03-23T06:56:40;9.27;;;5.95;;
6531;SDS011;3299;42.004;24.868;2024-03-23T06:59:06;10.20;;;6.20;;
6531;SDS011;3299;42.004;24.868;2024-03-23T07:01:31;9.70;;;6.07;;
6531;SDS011;3299;42.004;24.868;2024-03-23T07:03:57;11.73;;;5.70;;
6531;SDS011;3299;42.004;24.868;2024-03-23T07:06:22;7.40;;;4.95;;
6531;SDS011;3299;42.004;24.868;2024-03-23T07:08:47;6.95;;;4.85;;
6531;SDS011;3299;42.004;24.868;2024-03-23T07:11:21;9.52;;;5.82;;
6531;SDS011;3299;42.004;24.868;2024-03-23T07:13:49;9.85;;;5.90;;
6531;SDS011;3299;42.004;24.868;2024-03-23T07:16:15;5.15;;;4.60;;
6531;SDS011;3299;42.004;24.868;2024-03-23T07:18:41;6.22;;;4.55;;
6531;SDS011;3299;42.004;24.868;2024-03-23T07:21:06;8.07;;;4.30;;
6531;SDS011;3299;42.004;24.868;2024-03-23T07:23:32;8.25;;;4.35;;
6531;SDS011;3299;42.004;24.868;2024-03-23T07:25:58;9.52;;;5.70;;
6531;SDS011;3299;42.004;24.868;2024-03-23T07:28:24;9.85;;;5.22;;
6531;SDS011;3299;42.004;24.868;2024-03-23T07:31:05;10.80;;;5.60;;
6531;SDS011;3299;42.004;24.868;2024-03-23T07:33:35;8.82;;;5.97;;
6531;SDS011;3299;42.004;24.868;2024-03-23T07:36:12;8.55;;;5.88;;
6531;SDS011;3299;42.004;24.868;2024-03-23T07:38:41;8.55;;;4.95;;
6531;SDS011;3299;42.004;24.868;2024-03-23T07:41:25;7.03;;;5.38;;
6531;SDS011;3299;42.004;24.868;2024-03-23T07:43:53;10.63;;;5.63;;
6531;SDS011;3299;42.004;24.868;2024-03-23T07:46:19;8.02;;;5.00;;
6531;SDS011;3299;42.004;24.868;2024-03-23T07:48:45;7.88;;;5.30;;
6531;SDS011;3299;42.004;24.868;2024-03-23T07:51:12;7.18;;;5.25;;
6531;SDS011;3299;42.004;24.868;2024-03-23T07:53:42;7.13;;;5.28;;
6531;SDS011;3299;42.004;24.868;2024-03-23T07:56:09;8.27;;;5.05;;
6531;SDS011;3299;42.004;24.868;2024-03-23T07:58:35;5.18;;;4.53;;
6531;SDS011;3299;42.004;24.868;2024-03-23T08:01:08;7.15;;;5.00;;
6531;SDS011;3299;42.004;24.868;2024-03-23T08:03:37;5.55;;;4.53;;
6531;SDS011;3299;42.004;24.868;2024-03-23T08:06:11;7.63;;;4.95;;
6531;SDS011;3299;42.004;24.868;2024-03-23T08:08:45;8.88;;;4.90;;
6531;SDS011;3299;42.004;24.868;2024-03-23T08:11:11;7.63;;;4.90;;
6531;SDS011;3299;42.004;24.868;2024-03-23T08:13:38;5.55;;;4.35;;
6531;SDS011;3299;42.004;24.868;2024-03-23T08:16:05;8.07;;;5.20;;
6531;SDS011;3299;42.004;24.868;2024-03-23T08:18:31;8.18;;;5.55;;
6531;SDS011;3299;42.004;24.868;2024-03-23T08:23:30;10.18;;;5.15;;
6531;SDS011;3299;42.004;24.868;2024-03-23T08:25:59;5.47;;;4.47;;
6531;SDS011;3299;42.004;24.868;2024-03-23T08:28:26;10.48;;;5.30;;
6531;SDS011;3299;42.004;24.868;2024-03-23T08:30:52;7.45;;;5.13;;
6531;SDS011;3299;42.004;24.868;2024-03-23T08:33:18;8.05;;;5.18;;
6531;SDS011;3299;42.004;24.868;2024-03-23T08:35:52;9.60;;;4.63;;
6531;SDS011;3299;42.004;24.868;2024-03-23T08:38:21;13.60;;;6.25;;
6531;SDS011;3299;42.004;24.868;2024-03-23T08:40:47;11.38;;;6.25;;
6531;SDS011;3299;42.004;24.868;2024-03-23T08:43:13;14.07;;;6.72;;
6531;SDS011;3299;42.004;24.868;2024-03-23T08:45:38;12.27;;;6.43;;
6531;SDS011;3299;42.004;24.868;2024-03-23T08:48:03;10.98;;;6.70;;
6531;SDS011;3299;42.004;24.868;2024-03-23T08:50:29;10.35;;;6.53;;
6531;SDS011;3299;42.004;24.868;2024-03-23T08:52:54;14.63;;;6.43;;
6531;SDS011;3299;42.004;24.868;2024-03-23T08:55:20;15.25;;;7.03;;
6531;SDS011;3299;42.004;24.868;2024-03-23T08:57:45;9.73;;;5.97;;
6531;SDS011;3299;42.004;24.868;2024-03-23T09:00:11;10.85;;;5.93;;
6531;SDS011;3299;42.004;24.868;2024-03-23T09:02:37;11.52;;;5.78;;
6531;SDS011;3299;42.004;24.868;2024-03-23T09:05:02;13.20;;;6.30;;
6531;SDS011;3299;42.004;24.868;2024-03-23T09:07:32;7.63;;;5.63;;
6531;SDS011;3299;42.004;24.868;2024-03-23T09:09:57;5.97;;;5.38;;
6531;SDS011;3299;42.004;24.868;2024-03-23T09:12:23;7.47;;;4.82;;
6531;SDS011;3299;42.004;24.868;2024-03-23T09:14:49;6.85;;;5.10;;
6531;SDS011;3299;42.004;24.868;2024-03-23T09:17:15;12.23;;;5.55;;
6531;SDS011;3299;42.004;24.868;2024-03-23T09:19:41;12.70;;;6.00;;
6531;SDS011;3299;42.004;24.868;2024-03-23T09:22:06;7.60;;;5.35;;
6531;SDS011;3299;42.004;24.868;2024-03-23T09:24:32;14.90;;;5.63;;
6531;SDS011;3299;42.004;24.868;2024-03-23T09:26:57;6.05;;;4.78;;
6531;SDS011;3299;42.004;24.868;2024-03-23T09:29:22;8.80;;;5.13;;
6531;SDS011;3299;42.004;24.868;2024-03-23T09:31:48;6.88;;;4.88;;
6531;SDS011;3299;42.004;24.868;2024-03-23T09:34:13;8.25;;;5.35;;
6531;SDS011;3299;42.004;24.868;2024-03-23T09:36:39;8.52;;;5.32;;
6531;SDS011;3299;42.004;24.868;2024-03-23T09:39:04;7.68;;;4.97;;
6531;SDS011;3299;42.004;24.868;2024-03-23T09:41:31;7.85;;;4.75;;
6531;SDS011;3299;42.004;24.868;2024-03-23T09:43:56;6.32;;;5.53;;
6531;SDS011;3299;42.004;24.868;2024-03-23T09:46:26;6.30;;;5.03;;
6531;SDS011;3299;42.004;24.868;2024-03-23T09:48:53;6.90;;;4.78;;
6531;SDS011;3299;42.004;24.868;2024-03-23T09:51:20;8.45;;;4.82;;
6531;SDS011;3299;42.004;24.868;2024-03-23T09:53:46;7.60;;;4.45;;
6531;SDS011;3299;42.004;24.868;2024-03-23T09:56:11;6.00;;;4.82;;
6531;SDS011;3299;42.004;24.868;2024-03-23T09:58:37;5.15;;;4.35;;
6531;SDS011;3299;42.004;24.868;2024-03-23T10:01:02;6.38;;;4.50;;
6531;SDS011;3299;42.004;24.868;2024-03-23T10:03:28;4.63;;;4.18;;
6531;SDS011;3299;42.004;24.868;2024-03-23T10:06:00;5.68;;;4.45;;
6531;SDS011;3299;42.004;24.868;2024-03-23T10:08:28;10.50;;;5.07;;
6531;SDS011;3299;42.004;24.868;2024-03-23T10:10:54;8.05;;;4.90;;
6531;SDS011;3299;42.004;24.868;2024-03-23T10:13:26;7.55;;;5.13;;
6531;SDS011;3299;42.004;24.868;2024-03-23T10:15:54;7.20;;;5.57;;
6531;SDS011;3299;42.004;24.868;2024-03-23T10:18:21;8.10;;;4.53;;
6531;SDS011;3299;42.004;24.868;2024-03-23T10:21:07;7.78;;;4.95;;
6531;SDS011;3299;42.004;24.868;2024-03-23T10:23:37;6.85;;;4.68;;
6531;SDS011;3299;42.004;24.868;2024-03-23T10:28:51;4.55;;;3.75;;
6531;SDS011;3299;42.004;24.868;2024-03-23T10:31:26;6.35;;;3.83;;
6531;SDS011;3299;42.004;24.868;2024-03-23T10:33:52;5.25;;;4.00;;
6531;SDS011;3299;42.004;24.868;2024-03-23T10:36:19;4.40;;;3.97;;
6531;SDS011;3299;42.004;24.868;2024-03-23T10:38:49;3.80;;;3.50;;
6531;SDS011;3299;42.004;24.868;2024-03-23T10:41:16;4.18;;;3.70;;
6531;SDS011;3299;42.004;24.868;2024-03-23T10:43:42;4.53;;;3.53;;
6531;SDS011;3299;42.004;24.868;2024-03-23T10:46:09;7.72;;;3.75;;
6531;SDS011;3299;42.004;24.868;2024-03-23T10:48:35;4.20;;;3.25;;
6531;SDS011;3299;42.004;24.868;2024-03-23T10:51:00;3.60;;;3.30;;
6531;SDS011;3299;42.004;24.868;2024-03-23T10:53:26;5.28;;;4.10;;
6531;SDS011;3299;42.004;24.868;2024-03-23T10:55:53;5.15;;;4.00;;
6531;SDS011;3299;42.004;24.868;2024-03-23T10:58:21;4.75;;;3.90;;
6531;SDS011;3299;42.004;24.868;2024-03-23T11:00:51;8.93;;;4.10;;
6531;SDS011;3299;42.004;24.868;2024-03-23T11:03:34;7.13;;;4.15;;
6531;SDS011;3299;42.004;24.868;2024-03-23T11:06:02;12.98;;;4.07;;
6531;SDS011;3299;42.004;24.868;2024-03-23T11:08:38;4.93;;;3.25;;
6531;SDS011;3299;42.004;24.868;2024-03-23T11:11:14;9.25;;;3.88;;
6531;SDS011;3299;42.004;24.868;2024-03-23T11:13:42;3.95;;;3.50;;
6531;SDS011;3299;42.004;24.868;2024-03-23T11:16:16;6.18;;;3.80;;
6531;SDS011;3299;42.004;24.868;2024-03-23T11:18:46;3.75;;;3.20;;
6531;SDS011;3299;42.004;24.868;2024-03-23T11:24:18;6.57;;;4.40;;
6531;SDS011;3299;42.004;24.868;2024-03-23T11:26:44;4.75;;;3.95;;
6531;SDS011;3299;42.004;24.868;2024-03-23T11:29:19;6.10;;;3.65;;
6531;SDS011;3299;42.004;24.868;2024-03-23T11:31:51;8.25;;;5.53;;
6531;SDS011;3299;42.004;24.868;2024-03-23T11:34:17;7.05;;;3.70;;
6531;SDS011;3299;42.004;24.868;2024-03-23T11:37:04;6.82;;;4.80;;
6531;SDS011;3299;42.004;24.868;2024-03-23T11:39:30;5.43;;;4.13;;
6531;SDS011;3299;42.004;24.868;2024-03-23T11:41:56;4.82;;;4.35;;
6531;SDS011;3299;42.004;24.868;2024-03-23T11:44:22;6.18;;;4.65;;
6531;SDS011;3299;42.004;24.868;2024-03-23T11:46:49;5.38;;;4.47;;
6531;SDS011;3299;42.004;24.868;2024-03-23T11:49:24;4.82;;;4.30;;
6531;SDS011;3299;42.004;24.868;2024-03-23T11:51:52;5.57;;;4.43;;
6531;SDS011;3299;42.004;24.868;2024-03-23T11:54:22;6.20;;;5.05;;
6531;SDS011;3299;42.004;24.868;2024-03-23T11:59:38;5.85;;;4.50;;
6531;SDS011;3299;42.004;24.868;2024-03-23T12:04:39;4.47;;;4.07;;
6531;SDS011;3299;42.004;24.868;2024-03-23T12:07:09;4.63;;;4.13;;
6531;SDS011;3299;42.004;24.868;2024-03-23T12:09:44;6.07;;;4.18;;
6531;SDS011;3299;42.004;24.868;2024-03-23T12:12:13;4.70;;;4.30;;
6531;SDS011;3299;42.004;24.868;2024-03-23T12:14:42;7.47;;;4.35;;
6531;SDS011;3299;42.004;24.868;2024-03-23T12:17:12;5.32;;;4.28;;
6531;SDS011;3299;42.004;24.868;2024-03-23T12:19:38;4.18;;;3.75;;
6531;SDS011;3299;42.004;24.868;2024-03-23T12:22:05;4.55;;;4.00;;
6531;SDS011;3299;42.004;24.868;2024-03-23T12:24:34;5.65;;;4.10;;
6531;SDS011;3299;42.004;24.868;2024-03-23T12:27:03;7.40;;;4.53;;
6531;SDS011;3299;42.004;24.868;2024-03-23T12:29:32;4.93;;;4.43;;
6531;SDS011;3299;42.004;24.868;2024-03-23T12:32:00;5.13;;;4.22;;
6531;SDS011;3299;42.004;24.868;2024-03-23T12:34:27;5.90;;;4.43;;
6531;SDS011;3299;42.004;24.868;2024-03-23T12:36:53;4.72;;;4.13;;
6531;SDS011;3299;42.004;24.868;2024-03-23T12:39:18;4.53;;;4.13;;
6531;SDS011;3299;42.004;24.868;2024-03-23T12:41:46;6.18;;;3.67;;
6531;SDS011;3299;42.004;24.868;2024-03-23T12:44:12;4.78;;;3.72;;
6531;SDS011;3299;42.004;24.868;2024-03-23T12:46:38;4.53;;;3.22;;
6531;SDS011;3299;42.004;24.868;2024-03-23T12:49:04;6.88;;;4.55;;
6531;SDS011;3299;42.004;24.868;2024-03-23T12:51:30;4.57;;;4.18;;
6531;SDS011;3299;42.004;24.868;2024-03-23T12:53:56;4.57;;;4.18;;
6531;SDS011;3299;42.004;24.868;2024-03-23T12:56:21;4.43;;;3.58;;
6531;SDS011;3299;42.004;24.868;2024-03-23T12:58:47;4.80;;;3.92;;
6531;SDS011;3299;42.004;24.868;2024-03-23T13:01:16;4.85;;;3.55;;
6531;SDS011;3299;42.004;24.868;2024-03-23T13:03:46;4.63;;;4.20;;
6531;SDS011;3299;42.004;24.868;2024-03-23T13:06:12;3.67;;;3.35;;
6531;SDS011;3299;42.004;24.868;2024-03-23T13:08:38;3.28;;;2.97;;
6531;SDS011;3299;42.004;24.868;2024-03-23T13:11:03;4.07;;;3.67;;
6531;SDS011;3299;42.004;24.868;2024-03-23T13:13:29;2.72;;;2.53;;
6531;SDS011;3299;42.004;24.868;2024-03-23T13:15:56;3.63;;;3.33;;
6531;SDS011;3299;42.004;24.868;2024-03-23T13:18:22;3.45;;;3.13;;
6531;SDS011;3299;42.004;24.868;2024-03-23T13:20:47;3.92;;;3.28;;
6531;SDS011;3299;42.004;24.868;2024-03-23T13:23:13;3.50;;;3.20;;
6531;SDS011;3299;42.004;24.868;2024-03-23T13:25:38;6.57;;;2.90;;
6531;SDS011;3299;42.004;24.868;2024-03-23T13:28:04;4.60;;;3.08;;
6531;SDS011;3299;42.004;24.868;2024-03-23T13:30:29;7.00;;;3.17;;
6531;SDS011;3299;42.004;24.868;2024-03-23T13:32:55;3.40;;;3.10;;
6531;SDS011;3299;42.004;24.868;2024-03-23T13:35:20;3.20;;;2.90;;
6531;SDS011;3299;42.004;24.868;2024-03-23T13:37:47;4.80;;;3.10;;
6531;SDS011;3299;42.004;24.868;2024-03-23T13:40:13;3.53;;;2.70;;
6531;SDS011;3299;42.004;24.868;2024-03-23T13:42:39;3.25;;;2.25;;
6531;SDS011;3299;42.004;24.868;2024-03-23T13:45:04;2.30;;;2.10;;
6531;SDS011;3299;42.004;24.868;2024-03-23T13:47:30;5.43;;;2.83;;
6531;SDS011;3299;42.004;24.868;2024-03-23T13:49:55;2.65;;;2.40;;
6531;SDS011;3299;42.004;24.868;2024-03-23T13:52:21;3.88;;;2.40;;
6531;SDS011;3299;42.004;24.868;2024-03-23T13:54:48;3.03;;;2.30;;
6531;SDS011;3299;42.004;24.868;2024-03-23T13:57:13;3.15;;;2.78;;
6531;SDS011;3299;42.004;24.868;2024-03-23T13:59:39;3.95;;;2.40;;
6531;SDS011;3299;42.004;24.868;2024-03-23T14:02:04;2.58;;;2.38;;
6531;SDS011;3299;42.004;24.868;2024-03-23T14:04:30;3.22;;;2.60;;
6531;SDS011;3299;42.004;24.868;2024-03-23T14:06:55;3.35;;;2.25;;
6531;SDS011;3299;42.004;24.868;2024-03-23T14:09:21;3.53;;;2.33;;
6531;SDS011;3299;42.004;24.868;2024-03-23T14:11:48;3.38;;;2.10;;
6531;SDS011;3299;42.004;24.868;2024-03-23T14:14:14;2.72;;;2.40;;
6531;SDS011;3299;42.004;24.868;2024-03-23T14:16:42;2.78;;;2.58;;
6531;SDS011;3299;42.004;24.868;2024-03-23T14:19:10;2.60;;;2.40;;
6531;SDS011;3299;42.004;24.868;2024-03-23T14:21:35;2.70;;;2.50;;
6531;SDS011;3299;42.004;24.868;2024-03-23T14:24:00;2.70;;;2.47;;
6531;SDS011;3299;42.004;24.868;2024-03-23T14:26:27;4.10;;;2.80;;
6531;SDS011;3299;42.004;24.868;2024-03-23T14:28:53;4.75;;;2.58;;
6531;SDS011;3299;42.004;24.868;2024-03-23T14:31:18;3.25;;;2.58;;
6531;SDS011;3299;42.004;24.868;2024-03-23T14:33:43;3.03;;;2.45;;
6531;SDS011;3299;42.004;24.868;2024-03-23T14:36:15;2.25;;;2.15;;
6531;SDS011;3299;42.004;24.868;2024-03-23T14:38:42;2.40;;;2.28;;
6531;SDS011;3299;42.004;24.868;2024-03-23T14:41:11;2.53;;;2.38;;
6531;SDS011;3299;42.004;24.868;2024-03-23T14:43:37;2.80;;;2.65;;
6531;SDS011;3299;42.004;24.868;2024-03-23T14:46:06;3.88;;;2.78;;
6531;SDS011;3299;42.004;24.868;2024-03-23T14:48:34;2.65;;;2.45;;
6531;SDS011;3299;42.004;24.868;2024-03-23T14:51:00;3.80;;;3.42;;
6531;SDS011;3299;42.004;24.868;2024-03-23T14:53:29;3.53;;;3.05;;
6531;SDS011;3299;42.004;24.868;2024-03-23T14:55:58;3.03;;;2.80;;
6531;SDS011;3299;42.004;24.868;2024-03-23T14:58:25;4.45;;;3.22;;
6531;SDS011;3299;42.004;24.868;2024-03-23T15:00:51;3.60;;;2.72;;
6531;SDS011;3299;42.004;24.868;2024-03-23T15:03:17;3.67;;;3.38;;
6531;SDS011;3299;42.004;24.868;2024-03-23T15:05:51;4.60;;;3.42;;
6531;SDS011;3299;42.004;24.868;2024-03-23T15:08:17;6.35;;;3.95;;
6531;SDS011;3299;42.004;24.868;2024-03-23T15:10:42;5.88;;;4.15;;
6531;SDS011;3299;42.004;24.868;2024-03-23T15:13:07;5.70;;;3.92;;
6531;SDS011;3299;42.004;24.868;2024-03-23T15:15:37;7.88;;;3.38;;
6531;SDS011;3299;42.004;24.868;2024-03-23T15:18:04;5.22;;;3.50;;
6531;SDS011;3299;42.004;24.868;2024-03-23T15:20:29;4.13;;;3.67;;
6531;SDS011;3299;42.004;24.868;2024-03-23T15:22:55;5.60;;;4.13;;
6531;SDS011;3299;42.004;24.868;2024-03-23T15:25:20;6.20;;;4.18;;
6531;SDS011;3299;42.004;24.868;2024-03-23T15:27:48;3.85;;;3.38;;
6531;SDS011;3299;42.004;24.868;2024-03-23T15:30:14;5.22;;;2.50;;
6531;SDS011;3299;42.004;24.868;2024-03-23T15:32:39;3.05;;;2.83;;
6531;SDS011;3299;42.004;24.868;2024-03-23T15:35:05;4.72;;;2.63;;
6531;SDS011;3299;42.004;24.868;2024-03-23T15:37:32;3.95;;;3.08;;
6531;SDS011;3299;42.004;24.868;2024-03-23T15:39:59;6.38;;;4.03;;
6531;SDS011;3299;42.004;24.868;2024-03-23T15:42:24;5.55;;;3.70;;
6531;SDS011;3299;42.004;24.868;2024-03-23T15:44:50;3.28;;;2.67;;
6531;SDS011;3299;42.004;24.868;2024-03-23T15:47:15;4.97;;;2.97;;
6531;SDS011;3299;42.004;24.868;2024-03-23T15:49:41;3.33;;;2.83;;
6531;SDS011;3299;42.004;24.868;2024-03-23T15:52:07;3.95;;;3.08;;
6531;SDS011;3299;42.004;24.868;2024-03-23T15:54:33;6.97;;;5.82;;
6531;SDS011;3299;42.004;24.868;2024-03-23T15:56:58;11.15;;;7.68;;
6531;SDS011;3299;42.004;24.868;2024-03-23T15:59:24;19.85;;;13.77;;
6531;SDS011;3299;42.004;24.868;2024-03-23T16:01:49;17.92;;;13.80;;
6531;SDS011;3299;42.004;24.868;2024-03-23T16:04:14;9.30;;;8.15;;